sensor_id;sensor_type;location;lat;lon;timestamp;P1;durP1;ratioP1;P2;durP2;ratioP2
32186;SDS011;18686;53.084;8.872;2023-07-16T00:00:09;21.58;;;11.02;;
32186;SDS011;18686;53.084;8.872;2023-07-16T00:02:38;16.98;;;8.90;;
32186;SDS011;18686;53.084;8.872;2023-07-16T00:05:08;18.95;;;8.10;;
32186;SDS011;18686;53.084;8.872;2023-07-16T00:07:36;15.07;;;7.43;;
32186;SDS011;18686;53.084;8.872;2023-07-16T00:10:05;17.23;;;8.23;;
32186;SDS011;18686;53.084;8.872;2023-07-16T00:12:33;22.88;;;8.90;;
32186;SDS011;18686;53.084;8.872;2023-07-16T00:15:04;17.85;;;8.25;;
32186;SDS011;18686;53.084;8.872;2023-07-16T00:17:33;22.55;;;7.88;;
32186;SDS011;18686;53.084;8.872;2023-07-16T00:20:02;21.67;;;9.18;;
32186;SDS011;18686;53.084;8.872;2023-07-16T00:22:33;16.45;;;8.13;;
32186;SDS011;18686;53.084;8.872;2023-07-16T00:25:02;16.70;;;7.25;;
32186;SDS011;18686;53.084;8.872;2023-07-16T00:27:31;18.67;;;7.93;;
32186;SDS011;18686;53.084;8.872;2023-07-16T00:29:59;21.27;;;9.10;;
32186;SDS011;18686;53.084;8.872;2023-07-16T00:32:28;21.35;;;8.98;;
32186;SDS011;18686;53.084;8.872;2023-07-16T00:34:56;20.40;;;8.95;;
32186;SDS011;18686;53.084;8.872;2023-07-16T00:37:25;20.73;;;7.55;;
32186;SDS011;18686;53.084;8.872;2023-07-16T00:39:54;18.10;;;8.82;;
32186;SDS011;18686;53.084;8.872;2023-07-16T00:42:23;20.95;;;9.65;;
32186;SDS011;18686;53.084;8.872;2023-07-16T00:44:51;17.50;;;8.38;;
32186;SDS011;18686;53.084;8.872;2023-07-16T00:47:19;21.08;;;9.07;;
32186;SDS011;18686;53.084;8.872;2023-07-16T00:49:49;18.63;;;8.27;;
32186;SDS011;18686;53.084;8.872;2023-07-16T00:52:18;14.35;;;8.18;;
32186;SDS011;18686;53.084;8.872;2023-07-16T00:54:48;21.90;;;8.48;;
32186;SDS011;18686;53.084;8.872;2023-07-16T00:57:18;20.90;;;8.88;;
32186;SDS011;18686;53.084;8.872;2023-07-16T00:59:47;23.77;;;8.90;;
32186;SDS011;18686;53.084;8.872;2023-07-16T01:02:16;20.88;;;9.15;;
32186;SDS011;18686;53.084;8.872;2023-07-16T01:04:44;20.00;;;9.85;;
32186;SDS011;18686;53.084;8.872;2023-07-16T01:07:13;23.13;;;9.55;;
32186;SDS011;18686;53.084;8.872;2023-07-16T01:09:43;20.17;;;9.40;;
32186;SDS011;18686;53.084;8.872;2023-07-16T01:12:13;23.25;;;9.70;;
32186;SDS011;18686;53.084;8.872;2023-07-16T01:14:43;22.13;;;9.68;;
32186;SDS011;18686;53.084;8.872;2023-07-16T01:17:11;18.08;;;9.02;;
32186;SDS011;18686;53.084;8.872;2023-07-16T01:19:40;22.15;;;10.13;;
32186;SDS011;18686;53.084;8.872;2023-07-16T01:22:13;22.00;;;8.68;;
32186;SDS011;18686;53.084;8.872;2023-07-16T01:24:58;24.05;;;9.93;;
32186;SDS011;18686;53.084;8.872;2023-07-16T01:27:38;25.48;;;10.65;;
32186;SDS011;18686;53.084;8.872;2023-07-16T01:32:47;29.02;;;10.70;;
32186;SDS011;18686;53.084;8.872;2023-07-16T01:35:16;22.42;;;9.23;;
32186;SDS011;18686;53.084;8.872;2023-07-16T01:37:45;22.15;;;9.88;;
32186;SDS011;18686;53.084;8.872;2023-07-16T01:40:13;30.63;;;9.98;;
32186;SDS011;18686;53.084;8.872;2023-07-16T01:42:42;25.77;;;10.15;;
32186;SDS011;18686;53.084;8.872;2023-07-16T01:45:10;23.73;;;10.23;;
32186;SDS011;18686;53.084;8.872;2023-07-16T01:47:44;25.95;;;9.52;;
32186;SDS011;18686;53.084;8.872;2023-07-16T01:50:18;16.63;;;8.80;;
32186;SDS011;18686;53.084;8.872;2023-07-16T01:52:47;30.80;;;10.65;;
32186;SDS011;18686;53.084;8.872;2023-07-16T01:55:16;24.25;;;9.70;;
32186;SDS011;18686;53.084;8.872;2023-07-16T01:57:45;25.67;;;9.77;;
32186;SDS011;18686;53.084;8.872;2023-07-16T02:00:13;17.40;;;8.98;;
32186;SDS011;18686;53.084;8.872;2023-07-16T02:02:45;31.27;;;11.38;;
32186;SDS011;18686;53.084;8.872;2023-07-16T02:05:14;24.73;;;10.60;;
32186;SDS011;18686;53.084;8.872;2023-07-16T02:07:43;21.30;;;9.93;;
32186;SDS011;18686;53.084;8.872;2023-07-16T02:10:12;25.92;;;11.10;;
32186;SDS011;18686;53.084;8.872;2023-07-16T02:12:40;24.67;;;11.07;;
32186;SDS011;18686;53.084;8.872;2023-07-16T02:15:09;22.10;;;9.35;;
32186;SDS011;18686;53.084;8.872;2023-07-16T02:17:37;13.75;;;8.40;;
32186;SDS011;18686;53.084;8.872;2023-07-16T02:20:09;33.25;;;10.27;;
32186;SDS011;18686;53.084;8.872;2023-07-16T02:22:38;27.13;;;10.43;;
32186;SDS011;18686;53.084;8.872;2023-07-16T02:25:07;19.33;;;9.45;;
32186;SDS011;18686;53.084;8.872;2023-07-16T02:27:35;27.98;;;10.27;;
32186;SDS011;18686;53.084;8.872;2023-07-16T02:30:04;36.10;;;11.27;;
32186;SDS011;18686;53.084;8.872;2023-07-16T02:32:33;26.25;;;11.30;;
32186;SDS011;18686;53.084;8.872;2023-07-16T02:35:02;25.35;;;11.30;;
32186;SDS011;18686;53.084;8.872;2023-07-16T02:37:32;22.30;;;10.32;;
32186;SDS011;18686;53.084;8.872;2023-07-16T02:40:01;23.48;;;11.25;;
32186;SDS011;18686;53.084;8.872;2023-07-16T02:42:29;32.05;;;12.40;;
32186;SDS011;18686;53.084;8.872;2023-07-16T02:44:57;23.70;;;11.27;;
32186;SDS011;18686;53.084;8.872;2023-07-16T02:47:26;28.08;;;11.95;;
32186;SDS011;18686;53.084;8.872;2023-07-16T02:49:54;25.63;;;10.82;;
32186;SDS011;18686;53.084;8.872;2023-07-16T02:52:22;25.52;;;11.88;;
32186;SDS011;18686;53.084;8.872;2023-07-16T02:54:52;24.55;;;11.00;;
32186;SDS011;18686;53.084;8.872;2023-07-16T02:57:21;34.55;;;11.82;;
32186;SDS011;18686;53.084;8.872;2023-07-16T02:59:49;38.33;;;13.23;;
32186;SDS011;18686;53.084;8.872;2023-07-16T03:02:17;35.38;;;12.90;;
32186;SDS011;18686;53.084;8.872;2023-07-16T03:04:46;38.08;;;13.02;;
32186;SDS011;18686;53.084;8.872;2023-07-16T03:07:14;32.40;;;12.25;;
32186;SDS011;18686;53.084;8.872;2023-07-16T03:09:43;32.15;;;13.05;;
32186;SDS011;18686;53.084;8.872;2023-07-16T03:12:13;33.97;;;12.98;;
32186;SDS011;18686;53.084;8.872;2023-07-16T03:14:41;27.17;;;12.70;;
32186;SDS011;18686;53.084;8.872;2023-07-16T03:17:10;33.38;;;13.50;;
32186;SDS011;18686;53.084;8.872;2023-07-16T03:19:38;35.53;;;14.18;;
32186;SDS011;18686;53.084;8.872;2023-07-16T03:22:07;33.35;;;14.23;;
32186;SDS011;18686;53.084;8.872;2023-07-16T03:24:35;37.53;;;14.52;;
32186;SDS011;18686;53.084;8.872;2023-07-16T03:27:04;35.88;;;13.65;;
32186;SDS011;18686;53.084;8.872;2023-07-16T03:29:46;40.35;;;15.43;;
32186;SDS011;18686;53.084;8.872;2023-07-16T03:32:17;49.53;;;16.17;;
32186;SDS011;18686;53.084;8.872;2023-07-16T03:34:45;27.38;;;12.82;;
32186;SDS011;18686;53.084;8.872;2023-07-16T03:37:14;31.60;;;13.77;;
32186;SDS011;18686;53.084;8.872;2023-07-16T03:39:42;32.65;;;14.63;;
32186;SDS011;18686;53.084;8.872;2023-07-16T03:42:13;41.70;;;14.27;;
32186;SDS011;18686;53.084;8.872;2023-07-16T03:44:42;41.03;;;14.10;;
32186;SDS011;18686;53.084;8.872;2023-07-16T03:47:11;34.80;;;14.02;;
32186;SDS011;18686;53.084;8.872;2023-07-16T03:49:40;47.45;;;14.55;;
32186;SDS011;18686;53.084;8.872;2023-07-16T03:52:08;43.40;;;14.27;;
32186;SDS011;18686;53.084;8.872;2023-07-16T03:54:36;38.25;;;14.25;;
32186;SDS011;18686;53.084;8.872;2023-07-16T03:57:05;36.22;;;13.07;;
32186;SDS011;18686;53.084;8.872;2023-07-16T03:59:34;34.05;;;13.23;;
32186;SDS011;18686;53.084;8.872;2023-07-16T04:02:03;28.48;;;11.23;;
32186;SDS011;18686;53.084;8.872;2023-07-16T04:04:33;32.05;;;12.60;;
32186;SDS011;18686;53.084;8.872;2023-07-16T04:07:02;29.08;;;12.27;;
32186;SDS011;18686;53.084;8.872;2023-07-16T04:09:30;40.15;;;14.27;;
32186;SDS011;18686;53.084;8.872;2023-07-16T04:11:59;36.53;;;14.32;;
32186;SDS011;18686;53.084;8.872;2023-07-16T04:14:27;39.22;;;13.43;;
32186;SDS011;18686;53.084;8.872;2023-07-16T04:16:55;32.78;;;12.30;;
32186;SDS011;18686;53.084;8.872;2023-07-16T04:19:24;30.30;;;11.02;;
32186;SDS011;18686;53.084;8.872;2023-07-16T04:21:54;43.50;;;11.57;;
32186;SDS011;18686;53.084;8.872;2023-07-16T04:24:22;40.85;;;14.18;;
32186;SDS011;18686;53.084;8.872;2023-07-16T04:26:53;29.20;;;11.75;;
32186;SDS011;18686;53.084;8.872;2023-07-16T04:29:22;29.42;;;10.95;;
32186;SDS011;18686;53.084;8.872;2023-07-16T04:31:50;28.83;;;10.10;;
32186;SDS011;18686;53.084;8.872;2023-07-16T04:34:19;39.25;;;11.50;;
32186;SDS011;18686;53.084;8.872;2023-07-16T04:36:47;30.27;;;11.95;;
32186;SDS011;18686;53.084;8.872;2023-07-16T04:39:16;37.97;;;11.82;;
32186;SDS011;18686;53.084;8.872;2023-07-16T04:41:45;23.35;;;9.40;;
32186;SDS011;18686;53.084;8.872;2023-07-16T04:44:13;30.15;;;10.93;;
32186;SDS011;18686;53.084;8.872;2023-07-16T04:46:41;26.33;;;10.13;;
32186;SDS011;18686;53.084;8.872;2023-07-16T04:49:28;30.92;;;10.45;;
32186;SDS011;18686;53.084;8.872;2023-07-16T04:51:56;39.50;;;10.20;;
32186;SDS011;18686;53.084;8.872;2023-07-16T04:54:26;39.75;;;10.23;;
32186;SDS011;18686;53.084;8.872;2023-07-16T04:56:54;35.63;;;9.93;;
32186;SDS011;18686;53.084;8.872;2023-07-16T04:59:23;18.85;;;9.05;;
32186;SDS011;18686;53.084;8.872;2023-07-16T05:01:51;22.08;;;9.05;;
32186;SDS011;18686;53.084;8.872;2023-07-16T05:04:19;25.02;;;9.32;;
32186;SDS011;18686;53.084;8.872;2023-07-16T05:06:48;22.13;;;8.63;;
32186;SDS011;18686;53.084;8.872;2023-07-16T05:09:16;20.50;;;8.52;;
32186;SDS011;18686;53.084;8.872;2023-07-16T05:11:45;22.77;;;8.57;;
32186;SDS011;18686;53.084;8.872;2023-07-16T05:14:14;18.60;;;8.20;;
32186;SDS011;18686;53.084;8.872;2023-07-16T05:16:42;25.38;;;8.13;;
32186;SDS011;18686;53.084;8.872;2023-07-16T05:19:10;23.92;;;7.35;;
32186;SDS011;18686;53.084;8.872;2023-07-16T05:21:39;19.15;;;7.57;;
32186;SDS011;18686;53.084;8.872;2023-07-16T05:24:07;20.60;;;7.70;;
32186;SDS011;18686;53.084;8.872;2023-07-16T05:26:36;21.13;;;7.25;;
32186;SDS011;18686;53.084;8.872;2023-07-16T05:29:06;20.77;;;8.35;;
32186;SDS011;18686;53.084;8.872;2023-07-16T05:31:35;22.35;;;6.80;;
32186;SDS011;18686;53.084;8.872;2023-07-16T05:34:03;24.15;;;7.18;;
32186;SDS011;18686;53.084;8.872;2023-07-16T05:36:31;17.52;;;5.43;;
32186;SDS011;18686;53.084;8.872;2023-07-16T05:38:59;19.85;;;6.95;;
32186;SDS011;18686;53.084;8.872;2023-07-16T05:41:27;16.10;;;6.55;;
32186;SDS011;18686;53.084;8.872;2023-07-16T05:43:56;16.30;;;5.68;;
32186;SDS011;18686;53.084;8.872;2023-07-16T05:46:26;20.23;;;6.35;;
32186;SDS011;18686;53.084;8.872;2023-07-16T05:48:54;17.38;;;6.40;;
32186;SDS011;18686;53.084;8.872;2023-07-16T05:51:22;23.17;;;6.15;;
32186;SDS011;18686;53.084;8.872;2023-07-16T05:53:50;11.95;;;5.03;;
32186;SDS011;18686;53.084;8.872;2023-07-16T05:56:19;13.88;;;5.20;;
32186;SDS011;18686;53.084;8.872;2023-07-16T05:58:47;18.33;;;6.03;;
32186;SDS011;18686;53.084;8.872;2023-07-16T06:01:15;13.35;;;4.68;;
32186;SDS011;18686;53.084;8.872;2023-07-16T06:03:45;14.60;;;4.78;;
32186;SDS011;18686;53.084;8.872;2023-07-16T06:06:13;12.00;;;4.50;;
32186;SDS011;18686;53.084;8.872;2023-07-16T06:08:42;20.60;;;5.07;;
32186;SDS011;18686;53.084;8.872;2023-07-16T06:11:10;14.52;;;4.25;;
32186;SDS011;18686;53.084;8.872;2023-07-16T06:13:39;10.07;;;4.22;;
32186;SDS011;18686;53.084;8.872;2023-07-16T06:16:07;11.75;;;3.72;;
32186;SDS011;18686;53.084;8.872;2023-07-16T06:18:36;11.68;;;4.07;;
32186;SDS011;18686;53.084;8.872;2023-07-16T06:21:05;11.63;;;4.07;;
32186;SDS011;18686;53.084;8.872;2023-07-16T06:23:33;9.93;;;3.53;;
32186;SDS011;18686;53.084;8.872;2023-07-16T06:26:02;12.35;;;3.42;;
32186;SDS011;18686;53.084;8.872;2023-07-16T06:28:30;7.47;;;3.03;;
32186;SDS011;18686;53.084;8.872;2023-07-16T06:30:59;12.02;;;3.13;;
32186;SDS011;18686;53.084;8.872;2023-07-16T06:33:28;13.90;;;4.30;;
32186;SDS011;18686;53.084;8.872;2023-07-16T06:35:56;12.52;;;3.30;;
32186;SDS011;18686;53.084;8.872;2023-07-16T06:38:26;7.70;;;2.70;;
32186;SDS011;18686;53.084;8.872;2023-07-16T06:40:55;9.00;;;2.90;;
32186;SDS011;18686;53.084;8.872;2023-07-16T06:43:23;9.13;;;2.80;;
32186;SDS011;18686;53.084;8.872;2023-07-16T06:45:52;9.80;;;2.58;;
32186;SDS011;18686;53.084;8.872;2023-07-16T06:48:20;11.80;;;2.80;;
32186;SDS011;18686;53.084;8.872;2023-07-16T06:50:49;7.50;;;2.58;;
32186;SDS011;18686;53.084;8.872;2023-07-16T06:53:17;10.13;;;2.72;;
32186;SDS011;18686;53.084;8.872;2023-07-16T06:55:48;6.68;;;2.50;;
32186;SDS011;18686;53.084;8.872;2023-07-16T06:58:16;6.20;;;2.22;;
32186;SDS011;18686;53.084;8.872;2023-07-16T07:00:44;12.23;;;3.65;;
32186;SDS011;18686;53.084;8.872;2023-07-16T07:03:13;5.28;;;2.28;;
32186;SDS011;18686;53.084;8.872;2023-07-16T07:05:41;11.05;;;3.28;;
32186;SDS011;18686;53.084;8.872;2023-07-16T07:08:09;6.03;;;2.40;;
32186;SDS011;18686;53.084;8.872;2023-07-16T07:10:38;7.25;;;2.88;;
32186;SDS011;18686;53.084;8.872;2023-07-16T07:13:08;7.60;;;3.30;;
32186;SDS011;18686;53.084;8.872;2023-07-16T07:15:37;7.43;;;3.63;;
32186;SDS011;18686;53.084;8.872;2023-07-16T07:18:05;7.05;;;3.55;;
32186;SDS011;18686;53.084;8.872;2023-07-16T07:20:34;8.80;;;3.78;;
32186;SDS011;18686;53.084;8.872;2023-07-16T07:23:02;9.65;;;3.70;;
32186;SDS011;18686;53.084;8.872;2023-07-16T07:25:31;6.57;;;3.40;;
32186;SDS011;18686;53.084;8.872;2023-07-16T07:28:00;6.30;;;3.58;;
32186;SDS011;18686;53.084;8.872;2023-07-16T07:30:29;7.72;;;3.58;;
32186;SDS011;18686;53.084;8.872;2023-07-16T07:32:58;7.68;;;3.30;;
32186;SDS011;18686;53.084;8.872;2023-07-16T07:35:26;10.13;;;3.40;;
32186;SDS011;18686;53.084;8.872;2023-07-16T07:38:27;7.05;;;3.55;;
32186;SDS011;18686;53.084;8.872;2023-07-16T07:40:55;12.20;;;4.20;;
32186;SDS011;18686;53.084;8.872;2023-07-16T07:46:11;11.40;;;4.00;;
32186;SDS011;18686;53.084;8.872;2023-07-16T07:48:40;10.98;;;3.40;;
32186;SDS011;18686;53.084;8.872;2023-07-16T08:04:13;5.20;;;2.60;;
32186;SDS011;18686;53.084;8.872;2023-07-16T08:06:44;6.95;;;3.50;;
32186;SDS011;18686;53.084;8.872;2023-07-16T08:09:13;12.55;;;3.38;;
32186;SDS011;18686;53.084;8.872;2023-07-16T08:11:41;13.15;;;3.20;;
32186;SDS011;18686;53.084;8.872;2023-07-16T08:14:09;7.00;;;3.20;;
32186;SDS011;18686;53.084;8.872;2023-07-16T08:16:37;6.90;;;3.08;;
32186;SDS011;18686;53.084;8.872;2023-07-16T08:19:06;8.70;;;3.30;;
32186;SDS011;18686;53.084;8.872;2023-07-16T08:21:36;5.50;;;3.28;;
32186;SDS011;18686;53.084;8.872;2023-07-16T08:24:05;8.60;;;3.65;;
32186;SDS011;18686;53.084;8.872;2023-07-16T08:26:33;6.68;;;3.53;;
32186;SDS011;18686;53.084;8.872;2023-07-16T08:33:15;7.63;;;3.40;;
32186;SDS011;18686;53.084;8.872;2023-07-16T08:35:43;7.60;;;3.60;;
32186;SDS011;18686;53.084;8.872;2023-07-16T08:38:13;5.13;;;3.20;;
32186;SDS011;18686;53.084;8.872;2023-07-16T08:40:42;7.80;;;3.22;;
32186;SDS011;18686;53.084;8.872;2023-07-16T08:43:14;8.00;;;3.40;;
32186;SDS011;18686;53.084;8.872;2023-07-16T08:45:45;7.57;;;3.10;;
32186;SDS011;18686;53.084;8.872;2023-07-16T08:48:16;12.88;;;3.33;;
32186;SDS011;18686;53.084;8.872;2023-07-16T08:50:45;7.88;;;3.22;;
32186;SDS011;18686;53.084;8.872;2023-07-16T08:53:16;8.00;;;3.72;;
32186;SDS011;18686;53.084;8.872;2023-07-16T08:55:45;9.15;;;3.72;;
32186;SDS011;18686;53.084;8.872;2023-07-16T08:58:18;8.18;;;3.25;;
32186;SDS011;18686;53.084;8.872;2023-07-16T09:00:50;6.85;;;3.17;;
32186;SDS011;18686;53.084;8.872;2023-07-16T09:03:19;8.68;;;3.40;;
32186;SDS011;18686;53.084;8.872;2023-07-16T09:05:47;7.40;;;3.00;;
32186;SDS011;18686;53.084;8.872;2023-07-16T09:08:17;9.52;;;3.40;;
32186;SDS011;18686;53.084;8.872;2023-07-16T09:10:52;5.95;;;3.17;;
32186;SDS011;18686;53.084;8.872;2023-07-16T09:13:21;7.82;;;3.47;;
32186;SDS011;18686;53.084;8.872;2023-07-16T09:15:53;6.70;;;3.35;;
32186;SDS011;18686;53.084;8.872;2023-07-16T09:18:22;6.72;;;3.47;;
32186;SDS011;18686;53.084;8.872;2023-07-16T09:20:53;13.35;;;3.40;;
32186;SDS011;18686;53.084;8.872;2023-07-16T09:23:27;6.55;;;3.50;;
32186;SDS011;18686;53.084;8.872;2023-07-16T09:25:56;4.25;;;3.10;;
32186;SDS011;18686;53.084;8.872;2023-07-16T09:28:25;9.45;;;3.58;;
32186;SDS011;18686;53.084;8.872;2023-07-16T09:30:54;8.77;;;3.95;;
32186;SDS011;18686;53.084;8.872;2023-07-16T09:33:22;6.40;;;2.95;;
32186;SDS011;18686;53.084;8.872;2023-07-16T09:35:53;3.90;;;2.88;;
32186;SDS011;18686;53.084;8.872;2023-07-16T09:38:21;10.07;;;3.28;;
32186;SDS011;18686;53.084;8.872;2023-07-16T09:40:53;8.20;;;3.20;;
32186;SDS011;18686;53.084;8.872;2023-07-16T09:43:23;6.00;;;3.22;;
32186;SDS011;18686;53.084;8.872;2023-07-16T09:45:51;6.18;;;2.88;;
32186;SDS011;18686;53.084;8.872;2023-07-16T09:48:20;6.82;;;3.60;;
32186;SDS011;18686;53.084;8.872;2023-07-16T09:50:49;5.22;;;2.75;;
32186;SDS011;18686;53.084;8.872;2023-07-16T09:53:20;4.38;;;2.83;;
32186;SDS011;18686;53.084;8.872;2023-07-16T09:55:53;7.03;;;2.63;;
32186;SDS011;18686;53.084;8.872;2023-07-16T09:58:23;4.95;;;2.60;;
32186;SDS011;18686;53.084;8.872;2023-07-16T10:00:52;6.75;;;2.58;;
32186;SDS011;18686;53.084;8.872;2023-07-16T10:03:20;8.45;;;3.00;;
32186;SDS011;18686;53.084;8.872;2023-07-16T10:05:48;7.65;;;2.60;;
32186;SDS011;18686;53.084;8.872;2023-07-16T10:08:18;7.00;;;2.70;;
32186;SDS011;18686;53.084;8.872;2023-07-16T10:10:48;5.80;;;2.53;;
32186;SDS011;18686;53.084;8.872;2023-07-16T10:13:25;5.93;;;2.88;;
32186;SDS011;18686;53.084;8.872;2023-07-16T10:15:54;9.02;;;3.00;;
32186;SDS011;18686;53.084;8.872;2023-07-16T10:18:25;5.68;;;1.95;;
32186;SDS011;18686;53.084;8.872;2023-07-16T10:20:59;5.45;;;2.63;;
32186;SDS011;18686;53.084;8.872;2023-07-16T10:23:36;4.63;;;2.53;;
32186;SDS011;18686;53.084;8.872;2023-07-16T10:26:06;5.57;;;2.55;;
32186;SDS011;18686;53.084;8.872;2023-07-16T10:28:37;4.90;;;2.38;;
32186;SDS011;18686;53.084;8.872;2023-07-16T10:31:06;5.45;;;2.42;;
32186;SDS011;18686;53.084;8.872;2023-07-16T10:33:55;5.20;;;2.45;;
32186;SDS011;18686;53.084;8.872;2023-07-16T10:36:25;4.43;;;2.10;;
32186;SDS011;18686;53.084;8.872;2023-07-16T10:38:54;7.40;;;2.50;;
32186;SDS011;18686;53.084;8.872;2023-07-16T10:41:22;4.72;;;2.63;;
32186;SDS011;18686;53.084;8.872;2023-07-16T10:43:52;7.50;;;2.22;;
32186;SDS011;18686;53.084;8.872;2023-07-16T10:46:21;4.80;;;2.42;;
32186;SDS011;18686;53.084;8.872;2023-07-16T10:48:49;6.70;;;2.30;;
32186;SDS011;18686;53.084;8.872;2023-07-16T10:51:17;4.70;;;2.40;;
32186;SDS011;18686;53.084;8.872;2023-07-16T10:53:55;6.15;;;2.30;;
32186;SDS011;18686;53.084;8.872;2023-07-16T10:56:24;4.07;;;2.47;;
32186;SDS011;18686;53.084;8.872;2023-07-16T10:58:53;5.00;;;2.33;;
32186;SDS011;18686;53.084;8.872;2023-07-16T11:01:22;4.07;;;2.25;;
32186;SDS011;18686;53.084;8.872;2023-07-16T11:03:50;3.30;;;2.08;;
32186;SDS011;18686;53.084;8.872;2023-07-16T11:06:18;5.57;;;2.42;;
32186;SDS011;18686;53.084;8.872;2023-07-16T11:08:46;7.32;;;2.47;;
32186;SDS011;18686;53.084;8.872;2023-07-16T11:11:15;4.55;;;2.17;;
32186;SDS011;18686;53.084;8.872;2023-07-16T11:13:43;5.68;;;2.10;;
32186;SDS011;18686;53.084;8.872;2023-07-16T11:16:15;9.05;;;2.55;;
32186;SDS011;18686;53.084;8.872;2023-07-16T11:18:44;6.07;;;2.25;;
32186;SDS011;18686;53.084;8.872;2023-07-16T11:21:12;10.40;;;2.58;;
32186;SDS011;18686;53.084;8.872;2023-07-16T11:23:41;3.40;;;2.17;;
32186;SDS011;18686;53.084;8.872;2023-07-16T11:26:09;5.82;;;2.30;;
32186;SDS011;18686;53.084;8.872;2023-07-16T11:28:55;4.53;;;2.33;;
32186;SDS011;18686;53.084;8.872;2023-07-16T11:31:25;4.32;;;2.40;;
32186;SDS011;18686;53.084;8.872;2023-07-16T11:33:53;4.35;;;2.25;;
32186;SDS011;18686;53.084;8.872;2023-07-16T11:36:28;3.95;;;2.20;;
32186;SDS011;18686;53.084;8.872;2023-07-16T11:38:56;2.72;;;1.88;;
32186;SDS011;18686;53.084;8.872;2023-07-16T11:41:25;6.47;;;1.90;;
32186;SDS011;18686;53.084;8.872;2023-07-16T11:43:53;6.75;;;2.40;;
32186;SDS011;18686;53.084;8.872;2023-07-16T11:46:21;5.38;;;2.30;;
32186;SDS011;18686;53.084;8.872;2023-07-16T11:48:51;3.15;;;1.98;;
32186;SDS011;18686;53.084;8.872;2023-07-16T11:51:19;3.42;;;1.90;;
32186;SDS011;18686;53.084;8.872;2023-07-16T11:53:47;4.80;;;2.20;;
32186;SDS011;18686;53.084;8.872;2023-07-16T11:56:16;3.97;;;2.20;;
32186;SDS011;18686;53.084;8.872;2023-07-16T11:58:45;3.05;;;1.85;;
32186;SDS011;18686;53.084;8.872;2023-07-16T12:01:13;5.57;;;2.13;;
32186;SDS011;18686;53.084;8.872;2023-07-16T12:03:42;4.80;;;2.03;;
32186;SDS011;18686;53.084;8.872;2023-07-16T12:06:12;5.03;;;2.08;;
32186;SDS011;18686;53.084;8.872;2023-07-16T12:08:40;6.35;;;1.95;;
32186;SDS011;18686;53.084;8.872;2023-07-16T12:11:09;3.45;;;2.00;;
32186;SDS011;18686;53.084;8.872;2023-07-16T12:13:38;3.03;;;1.80;;
32186;SDS011;18686;53.084;8.872;2023-07-16T12:16:06;4.00;;;2.10;;
32186;SDS011;18686;53.084;8.872;2023-07-16T12:18:35;6.88;;;2.33;;
32186;SDS011;18686;53.084;8.872;2023-07-16T12:21:03;4.47;;;2.20;;
32186;SDS011;18686;53.084;8.872;2023-07-16T12:23:34;4.18;;;2.13;;
32186;SDS011;18686;53.084;8.872;2023-07-16T12:26:02;4.18;;;2.30;;
32186;SDS011;18686;53.084;8.872;2023-07-16T12:28:30;7.20;;;2.38;;
32186;SDS011;18686;53.084;8.872;2023-07-16T12:30:59;7.50;;;2.40;;
32186;SDS011;18686;53.084;8.872;2023-07-16T12:33:28;3.40;;;2.15;;
32186;SDS011;18686;53.084;8.872;2023-07-16T12:35:56;3.30;;;2.10;;
32186;SDS011;18686;53.084;8.872;2023-07-16T12:38:26;5.40;;;2.00;;
32186;SDS011;18686;53.084;8.872;2023-07-16T12:40:56;2.92;;;1.85;;
32186;SDS011;18686;53.084;8.872;2023-07-16T12:43:24;5.15;;;2.72;;
32186;SDS011;18686;53.084;8.872;2023-07-16T12:45:53;8.30;;;2.50;;
32186;SDS011;18686;53.084;8.872;2023-07-16T12:48:21;5.05;;;2.35;;
32186;SDS011;18686;53.084;8.872;2023-07-16T12:50:49;3.90;;;2.00;;
32186;SDS011;18686;53.084;8.872;2023-07-16T12:53:19;6.22;;;1.95;;
32186;SDS011;18686;53.084;8.872;2023-07-16T12:55:47;3.72;;;2.08;;
32186;SDS011;18686;53.084;8.872;2023-07-16T12:58:17;4.43;;;2.35;;
32186;SDS011;18686;53.084;8.872;2023-07-16T13:00:45;4.63;;;2.10;;
32186;SDS011;18686;53.084;8.872;2023-07-16T13:03:14;4.63;;;2.40;;
32186;SDS011;18686;53.084;8.872;2023-07-16T13:05:43;4.30;;;2.28;;
32186;SDS011;18686;53.084;8.872;2023-07-16T13:08:11;4.15;;;2.20;;
32186;SDS011;18686;53.084;8.872;2023-07-16T13:10:40;4.75;;;2.30;;
32186;SDS011;18686;53.084;8.872;2023-07-16T13:13:08;6.32;;;2.70;;
32186;SDS011;18686;53.084;8.872;2023-07-16T13:15:38;5.53;;;2.60;;
32186;SDS011;18686;53.084;8.872;2023-07-16T13:18:08;6.03;;;2.92;;
32186;SDS011;18686;53.084;8.872;2023-07-16T13:20:37;7.03;;;2.60;;
32186;SDS011;18686;53.084;8.872;2023-07-16T13:23:06;3.58;;;2.22;;
32186;SDS011;18686;53.084;8.872;2023-07-16T13:25:35;6.55;;;2.70;;
32186;SDS011;18686;53.084;8.872;2023-07-16T13:28:05;5.25;;;2.72;;
32186;SDS011;18686;53.084;8.872;2023-07-16T13:30:33;6.15;;;2.92;;
32186;SDS011;18686;53.084;8.872;2023-07-16T13:33:03;5.50;;;2.30;;
32186;SDS011;18686;53.084;8.872;2023-07-16T13:35:32;5.13;;;2.45;;
32186;SDS011;18686;53.084;8.872;2023-07-16T13:38:00;6.82;;;2.40;;
32186;SDS011;18686;53.084;8.872;2023-07-16T13:40:47;5.80;;;2.08;;
32186;SDS011;18686;53.084;8.872;2023-07-16T13:43:16;5.63;;;2.30;;
32186;SDS011;18686;53.084;8.872;2023-07-16T13:45:44;3.55;;;2.10;;
32186;SDS011;18686;53.084;8.872;2023-07-16T13:48:13;4.40;;;2.47;;
32186;SDS011;18686;53.084;8.872;2023-07-16T13:50:42;6.10;;;2.45;;
32186;SDS011;18686;53.084;8.872;2023-07-16T13:53:10;6.65;;;2.50;;
32186;SDS011;18686;53.084;8.872;2023-07-16T13:55:39;6.82;;;2.80;;
32186;SDS011;18686;53.084;8.872;2023-07-16T13:58:08;4.50;;;2.33;;
32186;SDS011;18686;53.084;8.872;2023-07-16T14:00:37;4.65;;;2.75;;
32186;SDS011;18686;53.084;8.872;2023-07-16T14:03:06;5.97;;;2.33;;
32186;SDS011;18686;53.084;8.872;2023-07-16T14:05:35;6.00;;;2.30;;
32186;SDS011;18686;53.084;8.872;2023-07-16T14:08:05;5.45;;;2.30;;
32186;SDS011;18686;53.084;8.872;2023-07-16T14:10:33;5.25;;;2.53;;
32186;SDS011;18686;53.084;8.872;2023-07-16T14:13:02;3.92;;;2.42;;
32186;SDS011;18686;53.084;8.872;2023-07-16T14:15:30;5.57;;;2.47;;
32186;SDS011;18686;53.084;8.872;2023-07-16T14:17:58;3.63;;;2.58;;
32186;SDS011;18686;53.084;8.872;2023-07-16T14:20:26;6.80;;;2.70;;
32186;SDS011;18686;53.084;8.872;2023-07-16T14:22:56;5.40;;;2.78;;
32186;SDS011;18686;53.084;8.872;2023-07-16T14:25:24;4.80;;;2.40;;
32186;SDS011;18686;53.084;8.872;2023-07-16T14:27:53;6.78;;;2.40;;
32186;SDS011;18686;53.084;8.872;2023-07-16T14:30:21;5.45;;;2.42;;
32186;SDS011;18686;53.084;8.872;2023-07-16T14:32:49;4.93;;;2.40;;
32186;SDS011;18686;53.084;8.872;2023-07-16T14:35:18;4.30;;;2.55;;
32186;SDS011;18686;53.084;8.872;2023-07-16T14:38:03;9.23;;;2.88;;
32186;SDS011;18686;53.084;8.872;2023-07-16T14:40:31;4.47;;;2.33;;
32186;SDS011;18686;53.084;8.872;2023-07-16T14:43:00;4.38;;;2.60;;
32186;SDS011;18686;53.084;8.872;2023-07-16T14:45:28;4.82;;;2.55;;
32186;SDS011;18686;53.084;8.872;2023-07-16T14:47:57;5.00;;;2.33;;
32186;SDS011;18686;53.084;8.872;2023-07-16T14:50:25;19.42;;;3.88;;
32186;SDS011;18686;53.084;8.872;2023-07-16T14:52:54;10.95;;;2.53;;
32186;SDS011;18686;53.084;8.872;2023-07-16T14:55:23;4.50;;;2.60;;
32186;SDS011;18686;53.084;8.872;2023-07-16T14:57:52;5.20;;;2.40;;
32186;SDS011;18686;53.084;8.872;2023-07-16T15:00:20;3.42;;;2.05;;
32186;SDS011;18686;53.084;8.872;2023-07-16T15:02:49;6.10;;;2.85;;
32186;SDS011;18686;53.084;8.872;2023-07-16T15:05:18;7.32;;;3.10;;
32186;SDS011;18686;53.084;8.872;2023-07-16T15:07:46;6.68;;;3.35;;
32186;SDS011;18686;53.084;8.872;2023-07-16T15:10:14;6.03;;;2.47;;
32186;SDS011;18686;53.084;8.872;2023-07-16T15:12:44;5.38;;;2.72;;